createdAt,value
2022-11-23T00:01:42.011Z,3.00
2022-11-23T00:04:16.413Z,2.83
2022-11-23T00:06:46.346Z,2.80
2022-11-23T00:09:17.338Z,2.43
2022-11-23T00:11:47.457Z,2.80
2022-11-23T00:14:17.955Z,2.93
2022-11-23T00:16:50.704Z,3.00
2022-11-23T00:19:20.851Z,2.87
2022-11-23T00:21:51.011Z,2.30
2022-11-23T00:24:21.127Z,2.80
2022-11-23T00:26:51.211Z,2.63
2022-11-23T00:29:22.308Z,2.37
2022-11-23T00:31:55.075Z,2.40
2022-11-23T00:34:25.409Z,2.80
2022-11-23T00:36:55.540Z,3.50
2022-11-23T00:39:26.181Z,2.53
2022-11-23T00:41:56.278Z,2.33
2022-11-23T00:44:26.850Z,2.13
2022-11-23T00:46:59.562Z,2.30
2022-11-23T00:49:31.024Z,2.60
2022-11-23T00:52:01.226Z,2.43
2022-11-23T00:54:32.509Z,2.67
2022-11-23T00:57:02.716Z,2.50
2022-11-23T00:59:34.815Z,2.40
2022-11-23T01:02:07.467Z,2.57
2022-11-23T01:04:37.520Z,2.43
2022-11-23T01:07:07.502Z,2.37
2022-11-23T01:09:38.115Z,2.50
2022-11-23T01:12:10.061Z,2.20
2022-11-23T01:14:40.530Z,2.17
2022-11-23T01:17:13.268Z,2.20
2022-11-23T01:19:43.724Z,1.50
2022-11-23T01:22:15.850Z,2.20
2022-11-23T01:24:46.594Z,2.30
2022-11-23T01:27:16.670Z,2.73
2022-11-23T01:29:46.920Z,2.47
2022-11-23T01:32:19.803Z,2.33
2022-11-23T01:34:50.314Z,2.03
2022-11-23T01:37:20.500Z,2.63
2022-11-23T01:39:52.159Z,1.83
2022-11-23T01:42:22.205Z,2.07
2022-11-23T01:44:53.486Z,2.47
2022-11-23T01:47:26.401Z,2.30
2022-11-23T01:49:56.494Z,2.90
2022-11-23T01:52:29.545Z,2.80
2022-11-23T01:55:06.946Z,2.50
2022-11-23T01:57:43.764Z,2.23
2022-11-23T02:00:15.666Z,2.10
2022-11-23T02:02:54.803Z,2.27
2022-11-23T02:05:28.878Z,2.47
2022-11-23T02:08:01.271Z,2.30
2022-11-23T02:10:36.678Z,2.40
2022-11-23T02:13:10.442Z,2.50
2022-11-23T02:15:40.870Z,2.40
2022-11-23T02:18:18.974Z,2.37
2022-11-23T02:20:49.582Z,2.47
2022-11-23T02:23:30.185Z,2.50
2022-11-23T02:26:06.886Z,1.90
2022-11-23T02:28:40.857Z,2.17
2022-11-23T02:31:11.037Z,2.10
2022-11-23T02:33:41.940Z,2.23
2022-11-23T02:36:34.439Z,2.20
2022-11-23T02:39:11.911Z,2.20
2022-11-23T02:41:48.298Z,2.33
2022-11-23T02:44:29.873Z,2.43
2022-11-23T02:47:01.226Z,2.50
2022-11-23T02:52:33.913Z,2.13
2022-11-23T02:55:07.386Z,2.23
2022-11-23T02:57:39.929Z,2.90
2022-11-23T03:00:18.097Z,2.37
2022-11-23T03:02:48.146Z,2.30
2022-11-23T03:05:19.560Z,3.40
2022-11-23T03:07:54.408Z,2.63
2022-11-23T03:10:24.853Z,2.90
2022-11-23T03:13:00.866Z,2.47
2022-11-23T03:15:33.106Z,2.60
2022-11-23T03:18:03.600Z,3.20
2022-11-23T03:20:34.184Z,2.63
2022-11-23T03:23:07.221Z,2.80
2022-11-23T03:25:37.473Z,2.57
2022-11-23T03:28:11.875Z,2.30
2022-11-23T03:30:41.801Z,2.97
2022-11-23T03:33:12.842Z,2.50
2022-11-23T03:35:43.338Z,2.50
2022-11-23T03:38:22.989Z,2.33
2022-11-23T03:40:52.908Z,3.30
2022-11-23T03:43:40.015Z,2.53
2022-11-23T03:46:10.827Z,2.87
2022-11-23T03:48:41.578Z,2.47
2022-11-23T03:51:13.071Z,2.90
2022-11-23T03:53:44.002Z,2.80
2022-11-23T03:56:14.067Z,2.63
2022-11-23T03:58:51.619Z,3.10
2022-11-23T04:01:22.062Z,2.63
2022-11-23T04:03:59.270Z,1.50
2022-11-23T04:06:55.537Z,2.30
2022-11-23T04:09:30.857Z,2.03
2022-11-23T04:12:07.675Z,4.03
2022-11-23T04:14:43.114Z,2.00
2022-11-23T04:17:13.156Z,1.87
2022-11-23T04:19:44.130Z,3.30
2022-11-23T04:22:14.205Z,1.80
2022-11-23T04:24:46.291Z,3.10
2022-11-23T04:27:16.250Z,1.90
2022-11-23T04:29:49.495Z,2.07
2022-11-23T04:32:21.686Z,2.40
2022-11-23T04:34:52.560Z,3.13
2022-11-23T04:37:22.526Z,2.20
2022-11-23T04:39:56.098Z,2.23
2022-11-23T04:42:40.265Z,2.50
2022-11-23T04:45:14.497Z,2.20
2022-11-23T04:47:44.854Z,2.20
2022-11-23T04:50:18.619Z,2.27
2022-11-23T04:52:53.677Z,3.57
2022-11-23T04:55:29.355Z,3.73
2022-11-23T04:58:01.426Z,2.50
2022-11-23T05:00:37.188Z,2.50
2022-11-23T05:03:08.542Z,2.23
2022-11-23T05:05:42.222Z,2.20
2022-11-23T05:08:13.278Z,1.83
2022-11-23T05:11:13.148Z,1.90
2022-11-23T05:13:44.459Z,2.03
2022-11-23T05:16:17.188Z,2.40
2022-11-23T05:18:47.786Z,2.33
2022-11-23T05:21:17.647Z,2.67
2022-11-23T05:23:47.620Z,2.30
2022-11-23T05:26:17.705Z,1.73
2022-11-23T05:28:48.220Z,2.40
2022-11-23T05:31:21.937Z,1.97
2022-11-23T05:33:52.274Z,2.13
2022-11-23T05:36:33.596Z,2.43
2022-11-23T05:39:04.120Z,1.90
2022-11-23T05:41:35.660Z,2.60
2022-11-23T05:44:09.423Z,2.50
2022-11-23T05:46:42.605Z,2.73
2022-11-23T05:49:13.312Z,2.57
2022-11-23T05:51:43.718Z,3.17
2022-11-23T05:54:14.376Z,2.83
2022-11-23T05:56:49.682Z,2.90
2022-11-23T05:59:23.302Z,3.27
2022-11-23T06:02:02.129Z,2.40
2022-11-23T06:04:35.473Z,3.00
2022-11-23T06:07:06.033Z,2.70
2022-11-23T06:09:49.461Z,3.27
2022-11-23T06:12:19.720Z,3.20
2022-11-23T06:14:50.731Z,2.80
2022-11-23T06:17:27.161Z,2.97
2022-11-23T06:20:03.631Z,3.13
2022-11-23T06:22:33.935Z,3.97
2022-11-23T06:25:08.754Z,2.33
2022-11-23T06:27:56.213Z,3.30
2022-11-23T06:30:32.616Z,4.30
2022-11-23T06:33:10.095Z,2.77
2022-11-23T06:35:54.395Z,3.50
2022-11-23T06:38:24.753Z,2.80
2022-11-23T06:41:03.733Z,3.00
2022-11-23T06:43:34.951Z,2.90
2022-11-23T06:46:07.735Z,3.37
2022-11-23T06:48:48.559Z,3.40
2022-11-23T06:51:19.057Z,3.20
2022-11-23T06:53:52.369Z,4.00
2022-11-23T06:56:22.400Z,3.30
2022-11-23T06:58:52.831Z,3.60
2022-11-23T07:01:27.179Z,2.93
2022-11-23T07:04:05.357Z,3.80
2022-11-23T07:06:43.012Z,3.97
2022-11-23T07:09:22.993Z,3.33
2022-11-23T07:12:05.551Z,3.30
2022-11-23T07:14:36.038Z,3.50
2022-11-23T07:17:06.237Z,3.30
2022-11-23T07:19:43.539Z,3.93
2022-11-23T07:22:13.568Z,4.13
2022-11-23T07:24:46.950Z,4.20
2022-11-23T07:27:20.499Z,3.60
2022-11-23T07:29:50.792Z,3.30
2022-11-23T07:32:21.705Z,3.90
2022-11-23T07:34:54.798Z,3.40
2022-11-23T07:37:24.862Z,3.50
2022-11-23T07:39:57.918Z,4.37
2022-11-23T07:42:36.887Z,3.60
2022-11-23T07:45:12.890Z,3.90
2022-11-23T07:47:47.732Z,3.97
2022-11-23T07:50:20.578Z,3.90
2022-11-23T07:52:50.536Z,4.00
2022-11-23T07:55:20.808Z,3.53
2022-11-23T07:57:54.166Z,4.50
2022-11-23T08:00:25.622Z,3.70
2022-11-23T08:03:26.056Z,4.00
2022-11-23T08:05:48.442Z,4.33
2022-11-23T08:08:18.830Z,3.70
2022-11-23T08:10:53.320Z,4.27
2022-11-23T08:13:24.490Z,4.77
2022-11-23T08:15:55.960Z,3.63
2022-11-23T08:18:27.022Z,3.37
2022-11-23T08:21:02.786Z,3.70
2022-11-23T08:23:32.926Z,3.37
2022-11-23T08:26:09.104Z,4.07
2022-11-23T08:28:43.633Z,3.83
2022-11-23T08:31:15.325Z,3.87
2022-11-23T08:33:45.364Z,3.80
2022-11-23T08:36:18.393Z,3.40
2022-11-23T08:38:51.378Z,4.23
2022-11-23T08:41:22.736Z,3.90
2022-11-23T08:43:52.893Z,4.00
2022-11-23T08:46:23.185Z,3.70
2022-11-23T08:48:53.441Z,3.40
2022-11-23T08:51:26.030Z,3.63
2022-11-23T08:53:56.013Z,4.10
2022-11-23T08:56:26.428Z,3.63
2022-11-23T08:58:56.858Z,3.10
2022-11-23T09:01:27.198Z,4.07
2022-11-23T09:03:57.278Z,3.93
2022-11-23T09:06:30.113Z,4.03
2022-11-23T09:09:05.630Z,3.83
2022-11-23T09:11:36.909Z,3.10
2022-11-23T09:14:08.610Z,4.20
2022-11-23T09:16:39.230Z,4.10
2022-11-23T09:19:09.774Z,3.63
2022-11-23T09:21:43.100Z,3.67
2022-11-23T09:24:15.032Z,4.10
2022-11-23T09:26:45.029Z,4.17
2022-11-23T09:29:15.142Z,2.73
2022-11-23T09:31:45.203Z,3.43
2022-11-23T09:34:15.712Z,3.40
2022-11-23T09:36:48.652Z,4.30
2022-11-23T09:39:18.752Z,3.40
2022-11-23T09:42:13.546Z,3.27
2022-11-23T09:44:59.542Z,3.73
2022-11-23T09:47:48.213Z,3.20
2022-11-23T09:50:24.791Z,4.03
2022-11-23T09:52:57.601Z,3.60
2022-11-23T09:55:36.789Z,3.00
2022-11-23T09:58:09.219Z,4.00
2022-11-23T10:00:49.703Z,3.23
2022-11-23T10:03:21.391Z,3.13
2022-11-23T10:06:05.002Z,3.20
2022-11-23T10:08:52.429Z,2.77
2022-11-23T10:11:53.134Z,2.60
2022-11-23T10:14:38.723Z,3.20
2022-11-23T10:17:18.628Z,2.97
2022-11-23T10:20:02.794Z,2.80
2022-11-23T10:22:38.543Z,3.10
2022-11-23T10:25:18.328Z,2.70
2022-11-23T10:27:51.246Z,2.73
2022-11-23T10:30:23.607Z,2.83
2022-11-23T10:33:01.225Z,2.80
2022-11-23T10:35:35.105Z,2.67
2022-11-23T10:38:18.457Z,2.60
2022-11-23T10:41:01.991Z,2.33
2022-11-23T10:43:37.942Z,2.70
2022-11-23T10:46:28.025Z,2.30
2022-11-23T10:48:58.988Z,2.67
2022-11-23T10:51:32.953Z,2.30
2022-11-23T10:54:07.107Z,2.50
2022-11-23T10:56:49.423Z,3.37
2022-11-23T10:59:36.663Z,2.70
2022-11-23T11:02:23.615Z,2.43
2022-11-23T11:05:14.800Z,2.70
2022-11-23T11:07:44.852Z,2.93
2022-11-23T11:10:42.284Z,2.70
2022-11-23T11:13:29.975Z,2.47
2022-11-23T11:16:03.351Z,3.00
2022-11-23T11:18:36.896Z,2.50
2022-11-23T11:21:12.847Z,3.20
2022-11-23T11:23:44.176Z,2.47
2022-11-23T11:26:23.206Z,2.50
2022-11-23T11:28:57.685Z,2.77
2022-11-23T11:31:55.392Z,2.70
2022-11-23T11:34:29.441Z,2.70
2022-11-23T11:37:07.232Z,2.80
2022-11-23T11:39:41.706Z,2.90
2022-11-23T11:42:20.282Z,2.30
2022-11-23T11:44:59.218Z,2.30
2022-11-23T11:47:34.525Z,2.17
2022-11-23T11:50:13.790Z,2.07
2022-11-23T11:52:46.123Z,2.13
2022-11-23T11:55:21.587Z,2.70
2022-11-23T11:57:55.202Z,2.43
2022-11-23T12:00:31.352Z,2.40
2022-11-23T12:03:12.979Z,2.40
2022-11-23T12:05:49.477Z,2.60
2022-11-23T12:08:24.530Z,1.80
2022-11-23T12:10:58.151Z,2.23
2022-11-23T12:13:32.322Z,2.33
2022-11-23T12:16:13.605Z,1.90
2022-11-23T12:19:08.342Z,2.00
2022-11-23T12:21:55.773Z,2.30
2022-11-23T12:24:35.884Z,2.27
2022-11-23T12:27:12.742Z,2.20
2022-11-23T12:29:54.304Z,2.07
2022-11-23T12:32:39.878Z,2.30
2022-11-23T12:35:27.264Z,2.80
2022-11-23T12:38:08.898Z,2.20
2022-11-23T12:41:00.617Z,1.73
2022-11-23T12:43:36.673Z,2.13
2022-11-23T12:46:16.630Z,2.67
2022-11-23T12:49:05.337Z,2.40
2022-11-23T12:51:44.146Z,2.10
2022-11-23T12:54:34.391Z,1.80
2022-11-23T12:57:16.289Z,2.07
2022-11-23T12:59:51.478Z,2.40
2022-11-23T13:03:06.709Z,2.27
2022-11-23T13:06:10.243Z,1.47
2022-11-23T13:09:01.938Z,2.20
2022-11-23T13:11:44.277Z,1.90
2022-11-23T13:14:26.888Z,1.97
2022-11-23T13:17:14.440Z,1.93
2022-11-23T13:20:10.623Z,1.80
2022-11-23T13:22:46.323Z,1.60
2022-11-23T13:25:27.962Z,1.60
2022-11-23T13:28:04.218Z,2.37
2022-11-23T13:31:07.159Z,2.00
2022-11-23T13:33:39.537Z,1.70
2022-11-23T13:36:19.719Z,2.20
2022-11-23T13:38:52.625Z,1.50
2022-11-23T13:41:59.080Z,1.80
2022-11-23T13:44:32.716Z,2.57
2022-11-23T13:47:14.710Z,2.27
2022-11-23T13:49:51.225Z,2.10
2022-11-23T13:52:31.757Z,2.00
2022-11-23T13:55:22.629Z,2.30
2022-11-23T13:58:22.438Z,2.20
2022-11-23T14:00:54.602Z,2.07
2022-11-23T14:03:50.653Z,2.03
2022-11-23T14:06:45.069Z,2.00
2022-11-23T14:09:22.276Z,2.10
2022-11-23T14:12:11.257Z,1.93
2022-11-23T14:14:52.676Z,1.73
2022-11-23T14:17:50.820Z,1.70
2022-11-23T14:20:36.659Z,1.63
2022-11-23T14:23:48.883Z,1.77
2022-11-23T14:26:33.761Z,1.73
2022-11-23T14:29:30.149Z,1.53
2022-11-23T14:32:18.255Z,1.47
2022-11-23T14:34:57.357Z,1.50
2022-11-23T14:37:39.497Z,2.33
2022-11-23T14:40:17.886Z,1.87
2022-11-23T14:42:54.504Z,1.70
2022-11-23T14:45:34.100Z,1.67
2022-11-23T14:48:25.440Z,1.60
2022-11-23T14:51:03.558Z,2.20
2022-11-23T14:53:39.754Z,1.50
2022-11-23T14:56:25.287Z,1.50
2022-11-23T14:59:00.758Z,1.63
2022-11-23T15:01:34.884Z,2.13
2022-11-23T15:04:11.343Z,1.60
2022-11-23T15:06:47.501Z,1.70
2022-11-23T15:09:25.524Z,2.00
2022-11-23T15:12:07.940Z,1.63
2022-11-23T15:14:37.913Z,1.97
2022-11-23T15:17:21.198Z,2.20
2022-11-23T15:19:59.471Z,3.07
2022-11-23T15:22:31.308Z,1.70
2022-11-23T15:25:09.967Z,2.30
2022-11-23T15:27:44.215Z,1.67
2022-11-23T15:30:20.032Z,2.03
2022-11-23T15:33:06.594Z,1.70
2022-11-23T15:35:39.939Z,2.47
2022-11-23T15:38:20.467Z,2.07
2022-11-23T15:41:05.358Z,2.43
2022-11-23T15:43:36.625Z,1.40
2022-11-23T15:46:14.584Z,2.23
2022-11-23T15:48:52.380Z,2.00
2022-11-23T15:51:32.523Z,1.63
2022-11-23T15:54:03.238Z,2.33
2022-11-23T15:56:36.564Z,1.50
2022-11-23T15:59:10.272Z,1.90
2022-11-23T16:01:41.668Z,1.80
2022-11-23T16:04:30.606Z,2.10
2022-11-23T16:07:01.392Z,2.70
2022-11-23T16:09:51.076Z,4.23
2022-11-23T16:12:26.077Z,2.03
2022-11-23T16:14:57.610Z,3.23
2022-11-23T16:17:30.465Z,2.80
2022-11-23T16:20:07.519Z,2.10
2022-11-23T16:22:41.993Z,2.87
2022-11-23T16:25:26.508Z,2.83
2022-11-23T16:28:01.231Z,2.07
2022-11-23T16:30:39.020Z,2.47
2022-11-23T16:33:16.285Z,4.77
2022-11-23T16:35:49.722Z,3.23
2022-11-23T16:38:19.950Z,2.50
2022-11-23T16:40:56.351Z,4.50
2022-11-23T16:43:26.996Z,3.20
2022-11-23T16:45:57.540Z,3.57
2022-11-23T16:48:43.694Z,1.90
2022-11-23T16:51:16.980Z,3.00
2022-11-23T16:56:38.970Z,3.00
2022-11-23T16:59:12.027Z,2.00
2022-11-23T17:01:44.079Z,3.10
2022-11-23T17:04:15.233Z,2.80
2022-11-23T17:06:49.736Z,2.30
2022-11-23T17:09:20.162Z,1.80
2022-11-23T17:11:52.682Z,2.17
2022-11-23T17:14:30.268Z,1.93
2022-11-23T17:17:02.879Z,2.37
2022-11-23T17:19:33.259Z,2.27
2022-11-23T17:22:06.050Z,1.80
2022-11-23T17:24:35.867Z,1.87
2022-11-23T17:27:05.989Z,1.30
2022-11-23T17:29:41.485Z,2.30
2022-11-23T17:32:14.365Z,1.50
2022-11-23T17:34:44.333Z,1.70
2022-11-23T17:37:22.209Z,1.67
2022-11-23T17:39:53.289Z,2.27
2022-11-23T17:42:23.889Z,1.70
2022-11-23T17:44:54.185Z,1.77
2022-11-23T17:47:29.573Z,1.63
2022-11-23T17:50:00.392Z,1.40
2022-11-23T17:52:33.171Z,1.90
2022-11-23T17:55:03.139Z,1.83
2022-11-23T17:57:33.980Z,1.20
2022-11-23T18:00:04.106Z,1.83
2022-11-23T18:02:41.653Z,1.20
2022-11-23T18:05:16.509Z,2.00
2022-11-23T18:07:52.242Z,1.20
2022-11-23T18:10:22.826Z,1.40
2022-11-23T18:12:52.788Z,1.63
2022-11-23T18:15:22.665Z,1.10
2022-11-23T18:17:52.559Z,1.30
2022-11-23T18:20:22.808Z,2.87
2022-11-23T18:22:55.364Z,1.90
2022-11-23T18:25:25.245Z,1.20
2022-11-23T18:27:55.788Z,1.63
2022-11-23T18:30:25.894Z,1.70
2022-11-23T18:32:56.334Z,1.23
2022-11-23T18:35:26.248Z,1.50
2022-11-23T18:37:59.061Z,2.07
2022-11-23T18:40:28.940Z,1.23
2022-11-23T18:42:58.819Z,1.70
2022-11-23T18:45:28.721Z,1.80
2022-11-23T18:47:58.679Z,1.50
2022-11-23T18:50:28.548Z,1.20
2022-11-23T18:53:01.551Z,1.30
2022-11-23T18:55:31.657Z,1.40
2022-11-23T18:58:02.029Z,1.57
2022-11-23T19:00:31.918Z,1.57
2022-11-23T19:03:03.967Z,1.93
2022-11-23T19:05:35.989Z,1.77
2022-11-23T19:08:10.643Z,1.83
2022-11-23T19:10:41.590Z,1.60
2022-11-23T19:13:14.156Z,1.20
2022-11-23T19:15:44.064Z,1.40
2022-11-23T19:18:17.786Z,1.53
2022-11-23T19:20:48.471Z,2.20
2022-11-23T19:23:23.503Z,1.60
2022-11-23T19:25:55.437Z,1.70
2022-11-23T19:28:26.244Z,1.60
2022-11-23T19:30:56.108Z,2.07
2022-11-23T19:33:26.135Z,2.50
2022-11-23T19:35:55.972Z,1.97
2022-11-23T19:38:28.783Z,2.00
2022-11-23T19:40:58.751Z,1.20
2022-11-23T19:43:28.713Z,1.37
2022-11-23T19:46:04.513Z,1.40
2022-11-23T19:48:40.147Z,2.37
2022-11-23T19:51:13.026Z,1.60
2022-11-23T19:53:49.501Z,1.60
2022-11-23T19:56:21.161Z,1.97
2022-11-23T19:58:55.207Z,1.77
2022-11-23T20:01:28.211Z,1.73
2022-11-23T20:04:09.443Z,1.70
2022-11-23T20:06:42.426Z,1.60
2022-11-23T20:09:19.610Z,1.70
2022-11-23T20:11:51.417Z,1.80
2022-11-23T20:14:22.379Z,2.13
2022-11-23T20:16:52.370Z,1.97
2022-11-23T20:19:23.633Z,2.20
2022-11-23T20:21:54.084Z,2.20
2022-11-23T20:24:27.339Z,1.40
2022-11-23T20:26:57.277Z,1.53
2022-11-23T20:29:28.799Z,1.83
2022-11-23T20:31:58.948Z,2.00
2022-11-23T20:34:29.757Z,2.27
2022-11-23T20:37:00.070Z,2.60
2022-11-23T20:39:33.242Z,1.80
2022-11-23T20:42:03.080Z,1.80
2022-11-23T20:44:34.402Z,2.00
2022-11-23T20:47:07.951Z,2.10
2022-11-23T20:49:40.058Z,1.90
2022-11-23T20:52:09.975Z,2.07
2022-11-23T20:54:42.761Z,2.00
2022-11-23T20:57:12.714Z,2.17
2022-11-23T20:59:42.977Z,1.90
2022-11-23T21:02:12.981Z,1.77
2022-11-23T21:04:46.848Z,2.27
2022-11-23T21:07:18.313Z,2.30
2022-11-23T21:09:52.882Z,2.00
2022-11-23T21:12:35.716Z,1.77
2022-11-23T21:15:06.949Z,2.20
2022-11-23T21:17:36.823Z,2.47
2022-11-23T21:20:07.362Z,1.80
2022-11-23T21:22:38.078Z,2.10
2022-11-23T21:25:11.694Z,2.67
2022-11-23T21:27:41.616Z,2.27
2022-11-23T21:30:13.761Z,2.40
2022-11-23T21:32:43.562Z,2.30
2022-11-23T21:35:14.050Z,2.87
2022-11-23T21:37:43.909Z,2.80
2022-11-23T21:40:18.755Z,2.13
2022-11-23T21:42:48.962Z,2.80
2022-11-23T21:45:20.002Z,2.20
2022-11-23T21:47:50.672Z,2.20
2022-11-23T21:50:21.829Z,2.30
2022-11-23T21:52:51.663Z,2.60
2022-11-23T21:55:25.063Z,2.70
2022-11-23T21:57:54.974Z,3.00
2022-11-23T22:00:31.245Z,2.63
2022-11-23T22:03:01.863Z,2.90
2022-11-23T22:05:32.427Z,2.77
2022-11-23T22:10:58.876Z,2.80
2022-11-23T22:13:36.696Z,2.50
2022-11-23T22:16:15.174Z,3.00
2022-11-23T22:18:45.853Z,2.90
2022-11-23T22:21:18.725Z,2.90
2022-11-23T22:23:49.612Z,3.57
2022-11-23T22:26:23.003Z,3.23
2022-11-23T22:28:54.695Z,3.37
2022-11-23T22:31:28.224Z,3.03
2022-11-23T22:33:59.499Z,3.07
2022-11-23T22:36:30.928Z,2.60
2022-11-23T22:39:08.180Z,3.40
2022-11-23T22:41:41.725Z,3.83
2022-11-23T22:44:14.453Z,3.80
2022-11-23T22:46:48.979Z,3.60
2022-11-23T22:49:19.028Z,4.43
2022-11-23T22:51:48.911Z,3.60
2022-11-23T22:54:19.421Z,4.00
2022-11-23T22:56:51.841Z,4.43
2022-11-23T22:59:22.791Z,4.60
2022-11-23T23:01:52.683Z,3.67
2022-11-23T23:04:22.874Z,2.77
2022-11-23T23:06:52.717Z,3.70
2022-11-23T23:09:23.349Z,3.23
2022-11-23T23:11:55.941Z,3.30
2022-11-23T23:14:26.421Z,3.53
2022-11-23T23:16:56.467Z,3.20
2022-11-23T23:19:26.340Z,3.40
2022-11-23T23:21:56.183Z,3.40
2022-11-23T23:24:30.198Z,4.00
2022-11-23T23:27:02.753Z,3.37
2022-11-23T23:29:33.923Z,3.23
2022-11-23T23:32:03.801Z,2.33
2022-11-23T23:34:34.029Z,2.90
2022-11-23T23:37:04.335Z,2.63
2022-11-23T23:39:35.285Z,2.83
2022-11-23T23:42:07.829Z,3.10
2022-11-23T23:44:38.148Z,3.00
2022-11-23T23:47:08.161Z,3.40
2022-11-23T23:49:38.415Z,2.33
2022-11-23T23:52:08.540Z,2.70
2022-11-23T23:54:39.053Z,2.70
2022-11-23T23:57:11.582Z,2.90
2022-11-23T23:59:42.025Z,3.07
